createdAt,value
2018-03-07T00:00:05.278Z,94.51
2018-03-07T00:01:05.196Z,94.60
2018-03-07T00:02:05.110Z,94.51
2018-03-07T00:03:05.040Z,95.07
2018-03-07T00:04:04.942Z,94.89
2018-03-07T00:05:04.856Z,94.89
2018-03-07T00:06:04.776Z,94.42
2018-03-07T00:07:04.688Z,94.42
2018-03-07T00:08:04.601Z,94.70
2018-03-07T00:09:04.518Z,94.79
2018-03-07T00:10:04.433Z,94.70
2018-03-07T00:11:04.347Z,94.89
2018-03-07T00:12:04.265Z,95.55
2018-03-07T00:13:04.179Z,95.45
2018-03-07T00:14:04.097Z,95.45
2018-03-07T00:15:04.012Z,95.36
2018-03-07T00:16:03.933Z,94.79
2018-03-07T00:17:03.877Z,95.55
2018-03-07T00:18:03.758Z,95.45
2018-03-07T00:19:03.675Z,95.64
2018-03-07T00:20:03.591Z,95.64
2018-03-07T00:21:03.501Z,95.64
2018-03-07T00:22:03.418Z,95.36
2018-03-07T00:23:03.335Z,95.55
2018-03-07T00:24:03.251Z,95.64
2018-03-07T00:25:03.166Z,95.74
2018-03-07T00:26:03.095Z,95.64
2018-03-07T00:27:03.039Z,95.64
2018-03-07T00:28:02.913Z,95.64
2018-03-07T00:29:02.827Z,95.45
2018-03-07T00:30:02.741Z,95.83
2018-03-07T00:31:02.656Z,96.02
2018-03-07T00:32:02.574Z,95.36
2018-03-07T00:33:02.489Z,95.74
2018-03-07T00:34:02.405Z,96.12
2018-03-07T00:35:02.324Z,95.64
2018-03-07T00:36:02.297Z,95.74
2018-03-07T00:37:02.153Z,95.64
2018-03-07T00:38:02.072Z,95.55
2018-03-07T00:39:01.981Z,95.64
2018-03-07T00:40:01.896Z,95.55
2018-03-07T00:41:01.811Z,95.64
2018-03-07T00:42:01.727Z,95.64
2018-03-07T00:43:01.643Z,95.74
2018-03-07T00:44:01.578Z,95.64
2018-03-07T00:45:01.471Z,95.64
2018-03-07T00:46:01.392Z,95.64
2018-03-07T00:47:01.304Z,96.12
2018-03-07T00:48:01.219Z,95.26
2018-03-07T00:49:01.133Z,96.12
2018-03-07T00:50:01.075Z,95.55
2018-03-07T00:51:00.967Z,95.74
2018-03-07T00:52:00.884Z,95.64
2018-03-07T00:53:00.797Z,95.93
2018-03-07T00:54:00.723Z,95.83
2018-03-07T00:55:00.632Z,95.45
2018-03-07T00:56:00.542Z,95.45
2018-03-07T00:57:00.457Z,95.17
2018-03-07T00:58:00.374Z,95.26
2018-03-07T00:59:00.290Z,95.74
2018-03-07T01:00:00.204Z,95.93
2018-03-07T01:01:00.120Z,95.45
2018-03-07T01:02:00.036Z,95.64
2018-03-07T01:02:59.950Z,95.83
2018-03-07T01:03:59.865Z,95.64
2018-03-07T01:04:59.783Z,95.83
2018-03-07T01:05:59.727Z,96.02
2018-03-07T01:06:59.637Z,96.12
2018-03-07T01:07:59.527Z,96.21
2018-03-07T01:08:59.446Z,95.74
2018-03-07T01:09:59.361Z,95.83
2018-03-07T01:10:59.281Z,95.55
2018-03-07T01:11:59.190Z,96.21
2018-03-07T01:12:59.103Z,96.40
2018-03-07T01:13:59.076Z,96.02
2018-03-07T01:14:58.937Z,96.12
2018-03-07T01:15:58.852Z,96.40
2018-03-07T01:16:58.766Z,96.12
2018-03-07T01:17:58.684Z,96.78
2018-03-07T01:18:58.597Z,96.21
2018-03-07T01:19:58.512Z,96.12
2018-03-07T01:20:58.430Z,96.12
2018-03-07T01:21:58.345Z,96.02
2018-03-07T01:22:58.258Z,96.12
2018-03-07T01:23:58.173Z,96.40
2018-03-07T01:24:58.092Z,96.12
2018-03-07T01:25:58.005Z,96.21
2018-03-07T01:26:57.919Z,96.12
2018-03-07T01:27:57.837Z,96.12
2018-03-07T01:28:57.753Z,96.12
2018-03-07T01:29:57.669Z,96.21
2018-03-07T01:30:57.586Z,95.74
2018-03-07T01:31:57.511Z,96.31
2018-03-07T01:32:57.414Z,96.59
2018-03-07T01:33:57.329Z,96.40
2018-03-07T01:34:57.248Z,96.02
2018-03-07T01:35:57.158Z,95.64
2018-03-07T01:36:57.079Z,96.12
2018-03-07T01:37:56.991Z,96.02
2018-03-07T01:38:56.906Z,95.93
2018-03-07T01:39:56.821Z,95.93
2018-03-07T01:40:56.737Z,96.02
2018-03-07T01:41:56.651Z,96.31
2018-03-07T01:42:56.571Z,96.21
2018-03-07T01:43:56.483Z,96.31
2018-03-07T01:44:56.396Z,96.12
2018-03-07T01:45:56.315Z,95.83
2018-03-07T01:46:56.229Z,95.45
2018-03-07T01:47:56.149Z,95.93
2018-03-07T01:48:56.060Z,96.21
2018-03-07T01:49:55.976Z,96.31
2018-03-07T01:50:55.892Z,96.78
2018-03-07T01:51:55.804Z,96.31
2018-03-07T01:52:55.722Z,96.21
2018-03-07T01:53:55.635Z,96.40
2018-03-07T01:54:55.551Z,96.78
2018-03-07T01:55:55.475Z,96.59
2018-03-07T01:56:55.384Z,96.69
2018-03-07T01:57:55.298Z,96.69
2018-03-07T01:58:55.212Z,96.78
2018-03-07T01:59:55.142Z,96.78
2018-03-07T02:00:55.046Z,96.50
2018-03-07T02:01:54.959Z,96.78
2018-03-07T02:02:54.923Z,96.12
2018-03-07T02:05:37.379Z,96.12
2018-03-07T02:06:37.246Z,96.12
2018-03-07T02:07:37.168Z,96.21
2018-03-07T02:08:37.079Z,96.12
2018-03-07T02:09:36.993Z,96.02
2018-03-07T02:10:36.905Z,96.02
2018-03-07T02:11:36.823Z,95.74
2018-03-07T02:12:36.737Z,96.21
2018-03-07T02:13:36.654Z,96.02
2018-03-07T02:14:36.569Z,96.02
2018-03-07T02:15:36.486Z,96.31
2018-03-07T02:16:36.398Z,96.02
2018-03-07T02:17:36.314Z,95.93
2018-03-07T02:18:36.229Z,96.02
2018-03-07T02:19:36.147Z,96.12
2018-03-07T02:20:36.061Z,96.31
2018-03-07T02:21:36.022Z,95.83
2018-03-07T02:22:35.892Z,96.40
2018-03-07T02:23:35.811Z,96.21
2018-03-07T02:24:35.725Z,96.21
2018-03-07T02:25:35.639Z,96.12
2018-03-07T02:26:35.569Z,96.78
2018-03-07T02:27:35.469Z,96.40
2018-03-07T02:28:35.385Z,96.78
2018-03-07T02:29:35.302Z,96.69
2018-03-07T02:30:35.221Z,96.40
2018-03-07T02:31:35.134Z,96.50
2018-03-07T02:32:35.046Z,96.69
2018-03-07T02:33:34.966Z,96.78
2018-03-07T02:34:34.891Z,96.31
2018-03-07T02:35:34.797Z,95.55
2018-03-07T02:36:34.717Z,96.12
2018-03-07T02:37:34.627Z,96.59
2018-03-07T02:38:34.540Z,96.21
2018-03-07T02:39:34.455Z,96.02
2018-03-07T02:40:34.371Z,96.12
2018-03-07T02:41:34.288Z,96.31
2018-03-07T02:42:34.204Z,96.69
2018-03-07T02:43:34.134Z,96.31
2018-03-07T02:44:34.034Z,96.31
2018-03-07T02:45:33.948Z,96.78
2018-03-07T02:46:33.862Z,96.40
2018-03-07T02:47:33.777Z,96.97
2018-03-07T02:48:33.694Z,96.69
2018-03-07T02:49:33.610Z,96.21
2018-03-07T02:50:33.525Z,96.78
2018-03-07T02:51:33.441Z,96.78
2018-03-07T02:52:33.358Z,96.59
2018-03-07T02:53:33.271Z,96.78
2018-03-07T02:54:33.186Z,96.59
2018-03-07T02:55:33.106Z,96.40
2018-03-07T02:56:33.017Z,96.69
2018-03-07T02:57:32.932Z,96.78
2018-03-07T02:58:32.850Z,96.50
2018-03-07T02:59:32.764Z,96.31
2018-03-07T03:00:32.694Z,96.69
2018-03-07T03:01:32.595Z,96.69
2018-03-07T03:02:32.514Z,96.02
2018-03-07T03:03:32.427Z,96.40
2018-03-07T03:04:32.339Z,95.64
2018-03-07T03:05:32.257Z,96.40
2018-03-07T03:06:32.171Z,96.59
2018-03-07T03:07:32.086Z,96.40
2018-03-07T03:08:32.006Z,96.12
2018-03-07T03:09:31.918Z,96.40
2018-03-07T03:10:31.833Z,96.12
2018-03-07T03:11:31.752Z,96.50
2018-03-07T03:12:31.664Z,96.50
2018-03-07T03:13:31.578Z,96.59
2018-03-07T03:14:31.494Z,96.78
2018-03-07T03:15:31.410Z,95.74
2018-03-07T03:16:31.326Z,96.12
2018-03-07T03:17:31.242Z,96.40
2018-03-07T03:18:31.155Z,96.31
2018-03-07T03:19:31.070Z,96.02
2018-03-07T03:20:30.987Z,96.21
2018-03-07T03:21:30.918Z,96.31
2018-03-07T03:22:30.818Z,96.12
2018-03-07T03:23:30.732Z,96.02
2018-03-07T03:24:30.648Z,96.21
2018-03-07T03:25:30.563Z,95.93
2018-03-07T03:26:30.478Z,96.21
2018-03-07T03:27:30.393Z,96.50
2018-03-07T03:28:30.309Z,96.50
2018-03-07T03:29:30.226Z,96.59
2018-03-07T03:30:30.141Z,96.69
2018-03-07T03:31:30.058Z,96.12
2018-03-07T03:32:29.972Z,96.69
2018-03-07T03:33:29.889Z,96.31
2018-03-07T03:34:29.807Z,96.59
2018-03-07T03:35:29.718Z,96.50
2018-03-07T03:36:29.644Z,96.31
2018-03-07T03:37:29.550Z,96.40
2018-03-07T03:38:29.463Z,96.78
2018-03-07T03:39:29.393Z,96.40
2018-03-07T03:40:29.295Z,96.69
2018-03-07T03:41:29.212Z,96.21
2018-03-07T03:42:29.127Z,96.50
2018-03-07T03:43:29.040Z,96.21
2018-03-07T03:44:28.958Z,96.50
2018-03-07T03:45:28.873Z,96.50
2018-03-07T03:46:28.787Z,97.35
2018-03-07T03:47:28.704Z,97.25
2018-03-07T03:48:28.618Z,96.97
2018-03-07T03:49:28.534Z,96.97
2018-03-07T03:50:28.449Z,96.40
2018-03-07T03:51:28.364Z,96.69
2018-03-07T03:52:28.281Z,96.97
2018-03-07T03:53:28.195Z,96.97
2018-03-07T03:54:28.113Z,96.88
2018-03-07T03:55:28.024Z,97.06
2018-03-07T03:56:27.941Z,96.59
2018-03-07T03:57:27.865Z,96.50
2018-03-07T03:58:27.775Z,96.02
2018-03-07T03:59:27.687Z,96.31
2018-03-07T04:00:27.610Z,96.50
2018-03-07T04:01:27.519Z,96.78
2018-03-07T04:02:27.434Z,96.40
2018-03-07T04:03:27.352Z,96.17
2018-03-07T04:04:27.266Z,96.40
2018-03-07T04:05:27.179Z,96.12
2018-03-07T04:06:27.096Z,96.40
2018-03-07T04:07:27.024Z,96.02
2018-03-07T04:08:26.928Z,96.12
2018-03-07T04:09:26.847Z,96.40
2018-03-07T04:10:26.758Z,96.97
2018-03-07T04:11:26.680Z,95.93
2018-03-07T04:12:26.590Z,96.17
2018-03-07T04:13:26.505Z,96.83
2018-03-07T04:14:26.421Z,95.98
2018-03-07T04:15:26.341Z,96.45
2018-03-07T04:16:26.254Z,96.64
2018-03-07T04:17:26.168Z,97.11
2018-03-07T04:18:26.098Z,96.17
2018-03-07T04:19:26.001Z,96.36
2018-03-07T04:20:25.915Z,96.36
2018-03-07T04:21:25.831Z,96.64
2018-03-07T04:22:25.758Z,96.26
2018-03-07T04:23:25.665Z,96.36
2018-03-07T04:24:25.577Z,96.26
2018-03-07T04:25:25.493Z,96.26
2018-03-07T04:26:25.410Z,96.45
2018-03-07T04:27:25.325Z,96.17
2018-03-07T04:28:25.240Z,96.55
2018-03-07T04:29:25.156Z,96.64
2018-03-07T04:30:25.073Z,96.83
2018-03-07T04:31:24.986Z,96.26
2018-03-07T04:32:24.903Z,96.26
2018-03-07T04:33:24.818Z,96.17
2018-03-07T04:34:24.744Z,95.98
2018-03-07T04:35:24.650Z,96.36
2018-03-07T04:36:24.566Z,96.07
2018-03-07T04:37:24.482Z,96.26
2018-03-07T04:38:24.396Z,96.26
2018-03-07T04:39:24.312Z,96.83
2018-03-07T04:40:24.229Z,96.83
2018-03-07T04:41:24.144Z,96.83
2018-03-07T04:42:24.061Z,96.36
2018-03-07T04:43:23.977Z,96.64
2018-03-07T04:44:23.895Z,96.64
2018-03-07T04:45:23.806Z,96.64
2018-03-07T04:46:23.725Z,96.55
2018-03-07T04:47:23.640Z,96.17
2018-03-07T04:48:23.555Z,96.83
2018-03-07T04:49:23.469Z,96.55
2018-03-07T04:50:23.386Z,96.55
2018-03-07T04:51:23.301Z,96.55
2018-03-07T04:52:23.221Z,96.83
2018-03-07T04:53:23.134Z,97.02
2018-03-07T04:54:23.053Z,96.73
2018-03-07T04:55:22.968Z,96.55
2018-03-07T04:56:22.881Z,96.83
2018-03-07T04:57:22.795Z,96.26
2018-03-07T04:58:22.712Z,96.64
2018-03-07T04:59:22.628Z,96.45
2018-03-07T05:00:22.544Z,96.64
2018-03-07T05:01:22.461Z,96.17
2018-03-07T05:02:22.375Z,96.45
2018-03-07T05:03:22.290Z,96.83
2018-03-07T05:04:22.215Z,96.17
2018-03-07T05:05:22.122Z,96.92
2018-03-07T05:06:22.038Z,96.17
2018-03-07T05:07:21.955Z,96.73
2018-03-07T05:08:21.871Z,96.26
2018-03-07T05:09:21.784Z,96.73
2018-03-07T05:10:21.702Z,96.64
2018-03-07T05:11:21.617Z,97.59
2018-03-07T05:12:21.533Z,97.21
2018-03-07T05:13:21.461Z,96.92
2018-03-07T05:14:21.363Z,96.45
2018-03-07T05:15:21.280Z,96.26
2018-03-07T05:16:21.196Z,96.92
2018-03-07T05:17:21.113Z,96.36
2018-03-07T05:18:21.029Z,96.45
2018-03-07T05:19:20.944Z,97.02
2018-03-07T05:20:20.860Z,97.68
2018-03-07T05:21:20.777Z,97.02
2018-03-07T05:22:20.699Z,97.68
2018-03-07T05:23:20.606Z,97.21
2018-03-07T05:24:20.533Z,96.92
2018-03-07T05:25:20.439Z,97.11
2018-03-07T05:26:20.362Z,97.21
2018-03-07T05:27:20.274Z,97.02
2018-03-07T05:28:20.186Z,97.02
2018-03-07T05:29:20.103Z,97.02
2018-03-07T05:30:20.020Z,97.02
2018-03-07T05:31:19.941Z,97.30
2018-03-07T05:32:19.850Z,97.02
2018-03-07T05:33:19.766Z,97.21
2018-03-07T05:34:19.683Z,96.83
2018-03-07T05:35:19.598Z,96.17
2018-03-07T05:36:19.515Z,96.36
2018-03-07T05:37:19.430Z,96.92
2018-03-07T05:38:19.360Z,97.02
2018-03-07T05:39:19.264Z,96.73
2018-03-07T05:40:19.186Z,96.45
2018-03-07T05:41:19.094Z,97.21
2018-03-07T05:42:19.010Z,97.40
2018-03-07T05:43:18.925Z,97.11
2018-03-07T05:44:18.842Z,97.49
2018-03-07T05:45:18.758Z,97.11
2018-03-07T05:46:18.673Z,97.02
2018-03-07T05:47:18.591Z,97.21
2018-03-07T05:48:18.508Z,97.30
2018-03-07T05:49:18.421Z,97.02
2018-03-07T05:50:18.337Z,97.40
2018-03-07T05:51:18.253Z,97.11
2018-03-07T05:52:18.180Z,97.40
2018-03-07T05:53:18.085Z,97.59
2018-03-07T05:54:18.000Z,97.11
2018-03-07T05:55:17.917Z,97.40
2018-03-07T05:56:17.835Z,97.21
2018-03-07T05:57:17.750Z,97.59
2018-03-07T05:58:17.665Z,97.40
2018-03-07T05:59:17.581Z,97.30
2018-03-07T06:00:17.502Z,97.40
2018-03-07T06:01:17.413Z,97.02
2018-03-07T06:02:17.328Z,97.78
2018-03-07T06:03:17.243Z,97.78
2018-03-07T06:04:17.161Z,98.16
2018-03-07T06:05:17.076Z,98.54
2018-03-07T06:06:16.994Z,98.44
2018-03-07T06:07:16.907Z,98.16
2018-03-07T06:08:16.823Z,98.35
2018-03-07T06:09:16.740Z,97.49
2018-03-07T06:10:16.654Z,97.68
2018-03-07T06:11:16.572Z,97.78
2018-03-07T06:12:16.489Z,97.78
2018-03-07T06:13:16.402Z,98.72
2018-03-07T06:14:16.319Z,99.01
2018-03-07T06:15:16.254Z,98.91
2018-03-07T06:16:16.150Z,98.63
2018-03-07T06:17:16.067Z,98.82
2018-03-07T06:18:15.986Z,98.54
2018-03-07T06:19:15.900Z,98.25
2018-03-07T06:20:15.813Z,99.01
2018-03-07T06:21:15.730Z,99.20
2018-03-07T06:22:15.644Z,98.91
2018-03-07T06:23:15.560Z,98.91
2018-03-07T06:24:15.481Z,98.91
2018-03-07T06:25:15.394Z,99.34
2018-03-07T06:26:15.312Z,98.82
2018-03-07T06:27:15.224Z,98.21
2018-03-07T06:28:15.146Z,97.78
2018-03-07T06:29:15.058Z,98.21
2018-03-07T06:30:14.973Z,97.78
2018-03-07T06:31:14.888Z,97.02
2018-03-07T06:32:14.806Z,97.30
2018-03-07T06:33:14.722Z,97.45
2018-03-07T06:34:14.636Z,97.83
2018-03-07T06:35:14.553Z,97.64
2018-03-07T06:36:14.472Z,97.83
2018-03-07T06:37:14.389Z,97.64
2018-03-07T06:38:14.300Z,98.11
2018-03-07T06:39:14.218Z,98.02
2018-03-07T06:40:14.138Z,97.54
2018-03-07T06:41:14.047Z,98.11
2018-03-07T06:42:13.966Z,97.35
2018-03-07T06:43:13.896Z,97.07
2018-03-07T06:44:13.800Z,97.07
2018-03-07T06:45:13.714Z,97.54
2018-03-07T06:46:13.630Z,97.45
2018-03-07T06:47:13.546Z,97.73
2018-03-07T06:48:13.463Z,97.73
2018-03-07T06:49:13.390Z,97.73
2018-03-07T06:50:13.308Z,98.58
2018-03-07T06:51:13.212Z,98.58
2018-03-07T06:52:13.125Z,99.34
2018-03-07T06:53:13.042Z,99.44
2018-03-07T06:54:12.961Z,99.34
2018-03-07T06:55:12.878Z,99.44
2018-03-07T06:56:12.792Z,99.99
2018-03-07T06:57:12.706Z,99.99
2018-03-07T06:58:12.633Z,99.99
2018-03-07T06:59:12.537Z,99.99
2018-03-07T07:00:12.455Z,99.99
2018-03-07T07:01:12.378Z,99.82
2018-03-07T07:02:12.292Z,99.82
2018-03-07T07:03:12.205Z,99.15
2018-03-07T07:04:12.120Z,99.34
2018-03-07T07:05:12.043Z,99.44
2018-03-07T07:06:11.955Z,99.15
2018-03-07T07:07:11.868Z,99.15
2018-03-07T07:08:11.783Z,99.44
2018-03-07T07:09:11.700Z,98.96
2018-03-07T07:10:11.632Z,99.34
2018-03-07T07:11:11.536Z,99.06
2018-03-07T07:12:11.447Z,99.44
2018-03-07T07:13:11.363Z,99.53
2018-03-07T07:14:11.278Z,99.25
2018-03-07T07:15:11.197Z,99.15
2018-03-07T07:16:11.112Z,99.06
2018-03-07T07:17:11.040Z,98.58
2018-03-07T07:18:10.948Z,98.77
2018-03-07T07:19:10.863Z,98.77
2018-03-07T07:20:10.779Z,98.58
2018-03-07T07:21:10.693Z,99.06
2018-03-07T07:22:10.669Z,99.06
2018-03-07T07:23:10.526Z,99.06
2018-03-07T07:24:10.492Z,98.77
2018-03-07T07:25:10.371Z,98.96
2018-03-07T07:26:10.296Z,99.06
2018-03-07T07:27:10.197Z,98.58
2018-03-07T07:28:16.966Z,98.58
2018-03-07T07:29:10.024Z,98.77
2018-03-07T07:30:09.943Z,98.96
2018-03-07T07:31:12.469Z,98.58
2018-03-07T07:32:09.777Z,98.96
2018-03-07T07:33:09.705Z,99.06
2018-03-07T07:34:09.651Z,98.87
2018-03-07T07:35:09.573Z,98.77
2018-03-07T07:36:09.508Z,98.96
2018-03-07T07:37:09.422Z,98.49
2018-03-07T07:38:09.328Z,98.82
2018-03-07T07:39:09.240Z,98.44
2018-03-07T07:40:09.160Z,98.63
2018-03-07T07:41:10.000Z,98.25
2018-03-07T07:42:08.996Z,98.44
2018-03-07T07:43:08.907Z,98.82
2018-03-07T07:44:08.784Z,98.25
2018-03-07T07:45:08.744Z,98.44
2018-03-07T07:46:08.656Z,98.25
2018-03-07T07:47:08.589Z,97.88
2018-03-07T07:48:08.497Z,97.88
2018-03-07T07:49:08.415Z,97.59
2018-03-07T07:50:08.340Z,97.88
2018-03-07T07:51:08.262Z,97.59
2018-03-07T07:52:08.171Z,97.88
2018-03-07T07:53:08.082Z,97.31
2018-03-07T07:54:08.538Z,97.21
2018-03-07T07:55:07.923Z,97.12
2018-03-07T07:56:07.818Z,97.12
2018-03-07T07:57:07.751Z,97.12
2018-03-07T07:58:07.671Z,97.31
2018-03-07T07:59:07.575Z,97.02
2018-03-07T08:00:07.509Z,96.36
2018-03-07T08:01:07.417Z,96.45
2018-03-07T08:02:07.329Z,96.64
2018-03-07T08:03:07.250Z,96.36
2018-03-07T08:04:07.168Z,96.08
2018-03-07T08:05:07.086Z,95.88
2018-03-07T08:06:06.992Z,96.17
2018-03-07T08:07:06.915Z,96.59
2018-03-07T08:08:06.834Z,95.84
2018-03-07T08:09:06.755Z,96.12
2018-03-07T08:10:06.669Z,96.59
2018-03-07T08:11:06.567Z,96.22
2018-03-07T08:12:06.544Z,96.03
2018-03-07T08:13:06.412Z,95.36
2018-03-07T08:14:06.326Z,95.84
2018-03-07T08:15:06.253Z,95.84
2018-03-07T08:16:06.166Z,95.07
2018-03-07T08:17:06.091Z,95.17
2018-03-07T08:18:06.584Z,95.46
2018-03-07T08:19:05.922Z,95.46
2018-03-07T08:20:05.828Z,95.46
2018-03-07T08:21:06.531Z,95.74
2018-03-07T08:22:05.676Z,94.89
2018-03-07T08:23:05.596Z,95.74
2018-03-07T08:24:05.494Z,94.60
2018-03-07T08:25:06.039Z,95.07
2018-03-07T08:26:05.331Z,94.42
2018-03-07T08:27:05.263Z,94.89
2018-03-07T08:28:05.173Z,94.89
2018-03-07T08:29:05.084Z,94.60
2018-03-07T08:30:04.992Z,94.65
2018-03-07T08:31:04.935Z,94.65
2018-03-07T08:32:04.838Z,95.22
2018-03-07T08:33:04.739Z,93.80
2018-03-07T08:34:04.692Z,93.70
2018-03-07T08:35:04.596Z,93.94
2018-03-07T08:36:04.508Z,94.32
2018-03-07T08:37:04.436Z,93.56
2018-03-07T08:38:04.331Z,94.98
2018-03-07T08:39:04.243Z,94.60
2018-03-07T08:40:04.194Z,94.98
2018-03-07T08:41:04.099Z,93.56
2018-03-07T08:42:03.998Z,94.89
2018-03-07T08:43:03.933Z,94.60
2018-03-07T08:44:03.882Z,94.79
2018-03-07T08:45:03.779Z,95.46
2018-03-07T08:46:03.700Z,95.27
2018-03-07T08:47:03.605Z,95.27
2018-03-07T08:48:03.515Z,95.36
2018-03-07T08:49:03.420Z,95.46
2018-03-07T08:50:03.369Z,95.17
2018-03-07T08:51:03.295Z,94.89
2018-03-07T08:52:03.180Z,95.07
2018-03-07T08:53:03.103Z,94.51
2018-03-07T08:54:03.517Z,94.60
2018-03-07T08:55:02.924Z,94.89
2018-03-07T08:56:02.875Z,94.89
2018-03-07T08:57:02.772Z,94.98
2018-03-07T08:58:02.685Z,94.98
2018-03-07T08:59:02.626Z,95.07
2018-03-07T09:00:02.546Z,95.07
2018-03-07T09:01:02.451Z,94.42
2018-03-07T09:02:02.372Z,94.60
2018-03-07T09:03:02.304Z,94.51
2018-03-07T09:04:02.201Z,94.60
2018-03-07T09:05:02.121Z,94.89
2018-03-07T09:06:02.040Z,94.42
2018-03-07T09:07:01.940Z,93.65
2018-03-07T09:08:01.882Z,93.65
2018-03-07T09:09:01.792Z,93.84
2018-03-07T09:10:01.719Z,93.94
2018-03-07T09:11:01.623Z,93.65
2018-03-07T09:12:01.560Z,93.75
2018-03-07T09:13:01.459Z,93.18
2018-03-07T09:14:01.390Z,93.18
2018-03-07T09:15:01.295Z,92.80
2018-03-07T09:16:01.226Z,93.04
2018-03-07T09:17:01.139Z,92.94
2018-03-07T09:18:01.049Z,92.28
2018-03-07T09:19:01.546Z,91.71
2018-03-07T09:20:00.867Z,92.28
2018-03-07T09:21:00.813Z,92.09
2018-03-07T09:22:00.708Z,92.18
2018-03-07T09:23:00.648Z,92.18
2018-03-07T09:24:00.561Z,91.71
2018-03-07T09:25:00.485Z,91.33
2018-03-07T09:26:00.375Z,90.76
2018-03-07T09:27:00.306Z,90.57
2018-03-07T09:28:00.222Z,91.14
2018-03-07T09:29:01.103Z,91.04
2018-03-07T09:30:00.066Z,91.04
2018-03-07T09:30:59.946Z,91.04
2018-03-07T09:31:59.897Z,91.33
2018-03-07T09:32:59.826Z,90.19
2018-03-07T09:33:59.743Z,89.62
2018-03-07T09:34:59.658Z,89.62
2018-03-07T09:35:59.570Z,89.81
2018-03-07T09:36:59.466Z,89.62
2018-03-07T09:37:59.405Z,89.90
2018-03-07T09:38:59.339Z,89.62
2018-03-07T09:40:00.066Z,89.62
2018-03-07T09:40:59.166Z,89.53
2018-03-07T09:41:59.081Z,88.86
2018-03-07T09:42:59.005Z,89.05
2018-03-07T09:43:58.914Z,88.76
2018-03-07T09:44:58.841Z,89.00
2018-03-07T09:45:58.759Z,89.00
2018-03-07T09:46:58.642Z,88.90
2018-03-07T09:47:58.569Z,88.81
2018-03-07T09:48:58.520Z,88.90
2018-03-07T09:49:58.435Z,89.00
2018-03-07T09:50:58.347Z,88.34
2018-03-07T09:51:58.244Z,88.62
2018-03-07T09:52:58.187Z,88.53
2018-03-07T09:53:59.069Z,88.71
2018-03-07T09:54:58.007Z,88.24
2018-03-07T09:55:57.941Z,88.19
2018-03-07T09:56:57.840Z,86.86
2018-03-07T09:57:57.758Z,86.29
2018-03-07T09:58:57.690Z,86.38
2018-03-07T09:59:57.589Z,86.57
2018-03-07T10:00:57.528Z,86.00
2018-03-07T10:01:57.493Z,86.19
2018-03-07T10:02:57.359Z,86.29
2018-03-07T10:03:57.277Z,86.24
2018-03-07T10:04:57.208Z,86.24
2018-03-07T10:05:57.107Z,86.14
2018-03-07T10:06:57.035Z,86.43
2018-03-07T10:07:56.975Z,85.38
2018-03-07T10:08:56.865Z,84.91
2018-03-07T10:09:56.801Z,84.24
2018-03-07T10:10:56.707Z,84.81
2018-03-07T10:11:56.627Z,84.72
2018-03-07T10:12:56.567Z,84.43
2018-03-07T10:13:56.480Z,84.33
2018-03-07T10:14:56.376Z,83.10
2018-03-07T10:15:56.290Z,82.77
2018-03-07T10:16:56.218Z,82.49
2018-03-07T10:17:56.156Z,83.34
2018-03-07T10:18:56.069Z,82.68
2018-03-07T10:19:55.988Z,83.10
2018-03-07T10:20:55.921Z,82.68
2018-03-07T10:21:56.560Z,82.87
2018-03-07T10:22:55.781Z,82.29
2018-03-07T10:23:55.678Z,82.15
2018-03-07T10:24:55.589Z,82.24
2018-03-07T10:25:55.512Z,82.53
2018-03-07T10:26:55.437Z,81.96
2018-03-07T10:27:55.359Z,83.00
2018-03-07T10:28:55.268Z,82.53
2018-03-07T10:29:55.200Z,83.10
2018-03-07T10:30:56.068Z,82.62
2018-03-07T10:31:54.998Z,81.86
2018-03-07T10:32:54.931Z,81.10
2018-03-07T10:33:54.889Z,81.48
2018-03-07T10:34:54.793Z,82.05
2018-03-07T10:35:54.708Z,81.01
2018-03-07T10:36:54.641Z,80.00
2018-03-07T10:37:54.533Z,80.00
2018-03-07T10:38:54.453Z,79.14
2018-03-07T10:39:55.039Z,78.48
2018-03-07T10:40:54.308Z,79.33
2018-03-07T10:41:54.258Z,79.72
2018-03-07T10:42:54.160Z,80.10
2018-03-07T10:43:54.035Z,78.96
2018-03-07T10:44:53.978Z,79.33
2018-03-07T10:45:53.909Z,79.14
2018-03-07T10:46:53.834Z,78.96
2018-03-07T10:47:53.756Z,77.53
2018-03-07T10:48:53.643Z,77.15
2018-03-07T10:49:53.601Z,76.42
2018-03-07T10:50:53.499Z,76.14
2018-03-07T10:51:53.440Z,75.67
2018-03-07T10:52:53.356Z,75.47
2018-03-07T10:53:53.263Z,75.57
2018-03-07T10:54:53.165Z,75.13
2018-03-07T10:55:53.098Z,74.37
2018-03-07T10:56:53.005Z,74.18
2018-03-07T10:57:52.943Z,74.84
2018-03-07T10:58:52.854Z,75.09
2018-03-07T10:59:52.779Z,74.62
2018-03-07T11:00:52.705Z,74.62
2018-03-07T11:01:52.645Z,74.52
2018-03-07T11:02:52.514Z,74.71
2018-03-07T11:03:52.476Z,74.94
2018-03-07T11:04:52.393Z,74.75
2018-03-07T11:05:52.281Z,74.18
2018-03-07T11:06:52.245Z,74.27
2018-03-07T11:07:52.158Z,74.56
2018-03-07T11:08:52.081Z,73.70
2018-03-07T11:09:52.005Z,74.43
2018-03-07T11:10:51.908Z,74.99
2018-03-07T11:11:51.826Z,74.24
2018-03-07T11:12:52.559Z,74.71
2018-03-07T11:13:52.562Z,74.52
2018-03-07T11:14:51.613Z,74.99
2018-03-07T11:15:51.517Z,74.80
2018-03-07T11:16:51.410Z,74.62
2018-03-07T11:17:51.332Z,74.80
2018-03-07T11:18:51.265Z,74.62
2018-03-07T11:19:51.206Z,74.71
2018-03-07T11:20:51.151Z,74.33
2018-03-07T11:21:51.065Z,74.14
2018-03-07T11:22:50.998Z,74.33
2018-03-07T11:23:50.918Z,74.24
2018-03-07T11:24:50.787Z,74.24
2018-03-07T11:25:50.750Z,74.24
2018-03-07T11:26:50.680Z,74.90
2018-03-07T11:27:50.570Z,74.52
2018-03-07T11:28:50.511Z,74.31
2018-03-07T11:29:50.417Z,72.48
2018-03-07T11:30:50.337Z,69.87
2018-03-07T11:31:50.307Z,70.69
2018-03-07T11:32:50.186Z,71.73
2018-03-07T11:33:50.086Z,71.17
2018-03-07T11:34:50.046Z,70.15
2018-03-07T11:35:49.917Z,67.99
2018-03-07T11:36:49.875Z,67.04
2018-03-07T11:37:49.769Z,66.85
2018-03-07T11:38:49.703Z,66.60
2018-03-07T11:39:49.689Z,66.09
2018-03-07T11:40:49.527Z,65.52
2018-03-07T11:41:49.510Z,66.82
2018-03-07T11:42:49.432Z,67.86
2018-03-07T11:43:49.354Z,68.88
2018-03-07T11:44:49.286Z,69.35
2018-03-07T11:45:49.168Z,70.31
2018-03-07T11:46:49.117Z,70.37
2018-03-07T11:47:49.049Z,70.37
2018-03-07T11:48:48.981Z,70.47
2018-03-07T11:49:48.888Z,71.51
2018-03-07T11:50:48.815Z,71.80
2018-03-07T11:51:48.740Z,71.70
2018-03-07T11:52:48.674Z,72.27
2018-03-07T11:53:48.581Z,72.33
2018-03-07T11:54:48.507Z,72.71
2018-03-07T11:55:48.432Z,72.52
2018-03-07T11:56:48.354Z,72.52
2018-03-07T11:57:48.279Z,72.81
2018-03-07T11:58:48.190Z,73.47
2018-03-07T11:59:48.115Z,73.66
2018-03-07T12:00:48.045Z,74.04
2018-03-07T12:01:47.978Z,73.95
2018-03-07T12:02:47.905Z,73.47
2018-03-07T12:03:48.625Z,73.76
2018-03-07T12:04:48.596Z,73.47
2018-03-07T12:05:47.655Z,73.47
2018-03-07T12:06:47.674Z,73.57
2018-03-07T12:07:47.496Z,73.66
2018-03-07T12:08:47.413Z,73.47
2018-03-07T12:09:47.338Z,73.82
2018-03-07T12:10:47.260Z,74.20
2018-03-07T12:11:47.154Z,74.67
2018-03-07T12:12:47.594Z,74.39
2018-03-07T12:13:48.601Z,74.67
2018-03-07T12:14:47.601Z,74.96
2018-03-07T12:15:47.596Z,75.05
2018-03-07T12:16:46.779Z,75.43
2018-03-07T12:17:46.705Z,75.05
2018-03-07T12:18:46.619Z,75.34
2018-03-07T12:19:46.559Z,75.95
2018-03-07T12:20:46.475Z,75.85
2018-03-07T12:21:46.385Z,75.95
2018-03-07T12:22:47.095Z,75.57
2018-03-07T12:23:46.221Z,75.62
2018-03-07T12:24:46.146Z,76.01
2018-03-07T12:25:46.070Z,75.72
2018-03-07T12:26:45.990Z,76.14
2018-03-07T12:27:45.909Z,76.39
2018-03-07T12:28:45.823Z,76.29
2018-03-07T12:29:45.754Z,76.10
2018-03-07T12:30:45.674Z,76.29
2018-03-07T12:31:45.588Z,76.52
2018-03-07T12:32:46.104Z,76.20
2018-03-07T12:33:45.416Z,76.10
2018-03-07T12:34:45.392Z,76.29
2018-03-07T12:35:45.262Z,76.61
2018-03-07T12:36:46.112Z,76.76
2018-03-07T12:37:45.111Z,76.76
2018-03-07T12:38:45.645Z,77.24
2018-03-07T12:39:44.951Z,76.67
2018-03-07T12:40:44.879Z,77.53
2018-03-07T12:41:44.802Z,77.53
2018-03-07T12:42:44.715Z,77.53
2018-03-07T12:43:44.637Z,77.34
2018-03-07T12:44:44.566Z,77.91
2018-03-07T12:45:45.111Z,78.57
2018-03-07T12:46:44.399Z,78.57
2018-03-07T12:47:44.319Z,78.48
2018-03-07T12:48:44.243Z,78.19
2018-03-07T12:49:44.183Z,78.48
2018-03-07T12:50:44.068Z,78.77
2018-03-07T12:51:43.997Z,78.57
2018-03-07T12:52:43.918Z,77.43